Time;durP1;ratioP1;P1;durP2;ratioP2;P2;SDS_P1;SDS_P2;PMS_P1;PMS_P2;Temp;Humidity;BMP_temperature;BMP_pressure;BME280_temperature;BME280_humidity;BME280_pressure;Samples;Min_cycle;Max_cycle;Signal;HPM_P1;HPM_P2
2024/01/11 00:00:51;;;;;;;40.10;14.98;;;;;;;;;;5051783;28;20084;-79
2024/01/11 00:03:18;;;;;;;45.78;18.02;;;;;;;;;;5058928;28;20035;-79
2024/01/11 00:05:44;;;;;;;59.58;20.10;;;;;;;;;;5046757;28;20040;-81
2024/01/11 00:08:11;;;;;;;52.83;19.98;;;;;;;;;;5040566;28;20051;-80
2024/01/11 00:10:37;;;;;;;49.28;17.75;;;;;;;;;;5046352;28;20039;-79
2024/01/11 00:13:04;;;;;;;50.60;19.52;;;;;;;;;;5059805;28;20033;-79
2024/01/11 00:15:30;;;;;;;49.67;17.38;;;;;;;;;;5056353;28;20093;-80
2024/01/11 00:17:56;;;;;;;51.42;18.05;;;;;;;;;;5052523;28;20117;-79
2024/01/11 00:20:22;;;;;;;54.60;17.92;;;;;;;;;;5040422;28;20025;-80
2024/01/11 00:22:48;;;;;;;44.17;16.20;;;;;;;;;;5047303;28;20033;-79
2024/01/11 00:25:14;;;;;;;50.72;18.73;;;;;;;;;;5043416;28;20039;-79
2024/01/11 00:27:40;;;;;;;47.45;18.65;;;;;;;;;;5051409;28;20029;-79
2024/01/11 00:30:07;;;;;;;56.30;16.77;;;;;;;;;;5059784;28;20034;-79
2024/01/11 00:32:33;;;;;;;44.28;15.65;;;;;;;;;;5064050;28;20033;-79
2024/01/11 00:34:59;;;;;;;46.15;15.88;;;;;;;;;;5062171;28;20032;-79
2024/01/11 00:37:26;;;;;;;45.63;15.57;;;;;;;;;;5056856;28;20097;-79
2024/01/11 00:39:52;;;;;;;49.30;15.90;;;;;;;;;;5059689;28;20104;-78
2024/01/11 00:42:18;;;;;;;43.10;16.27;;;;;;;;;;5041832;28;20022;-78
2024/01/11 00:44:45;;;;;;;50.60;16.30;;;;;;;;;;5046207;28;20033;-79
2024/01/11 00:47:11;;;;;;;43.50;15.18;;;;;;;;;;5040808;28;20064;-79
2024/01/11 00:49:37;;;;;;;38.10;14.00;;;;;;;;;;5058996;28;20028;-79
2024/01/11 00:52:03;;;;;;;36.88;13.85;;;;;;;;;;5059677;28;20101;-80
2024/01/11 00:54:30;;;;;;;44.85;16.70;;;;;;;;;;5040699;28;20040;-79
2024/01/11 00:56:56;;;;;;;44.70;17.15;;;;;;;;;;5054342;28;20017;-80
2024/01/11 00:59:22;;;;;;;54.83;18.08;;;;;;;;;;5046932;28;20029;-78
2024/01/11 01:01:49;;;;;;;51.95;19.38;;;;;;;;;;5039530;28;20055;-78
2024/01/11 01:04:15;;;;;;;62.55;22.65;;;;;;;;;;5042495;28;20044;-77
2024/01/11 01:06:42;;;;;;;62.67;19.88;;;;;;;;;;5052691;28;20039;-78
2024/01/11 01:09:08;;;;;;;51.80;18.70;;;;;;;;;;5038136;28;20033;-78
2024/01/11 01:11:34;;;;;;;52.60;18.65;;;;;;;;;;5060476;28;20025;-78
2024/01/11 01:14:00;;;;;;;49.97;16.42;;;;;;;;;;5068789;28;20032;-79
2024/01/11 01:16:26;;;;;;;49.05;16.92;;;;;;;;;;5060281;28;20029;-79
2024/01/11 01:18:52;;;;;;;38.92;15.68;;;;;;;;;;5068008;28;20052;-78
2024/01/11 01:21:18;;;;;;;37.42;13.00;;;;;;;;;;5056296;28;20026;-78
2024/01/11 01:23:45;;;;;;;36.40;13.80;;;;;;;;;;5042256;28;20033;-78
2024/01/11 01:26:11;;;;;;;42.28;13.98;;;;;;;;;;5037320;28;20116;-79
2024/01/11 01:28:37;;;;;;;41.60;15.57;;;;;;;;;;5036053;28;20108;-78
2024/01/11 01:31:03;;;;;;;40.97;16.60;;;;;;;;;;5037186;28;20448;-78
2024/01/11 01:33:29;;;;;;;39.85;15.13;;;;;;;;;;5036862;28;20041;-78
2024/01/11 01:35:55;;;;;;;33.08;13.63;;;;;;;;;;5065685;28;20025;-79
2024/01/11 01:38:22;;;;;;;31.80;13.43;;;;;;;;;;5056351;28;20088;-78
2024/01/11 01:40:48;;;;;;;39.85;14.35;;;;;;;;;;5044950;28;20098;-78
2024/01/11 01:43:14;;;;;;;46.70;16.52;;;;;;;;;;5036539;28;20044;-79
2024/01/11 01:45:40;;;;;;;44.20;17.08;;;;;;;;;;5047573;28;20034;-79
2024/01/11 01:48:07;;;;;;;40.70;15.40;;;;;;;;;;5064732;28;20035;-78
2024/01/11 01:50:34;;;;;;;46.15;16.95;;;;;;;;;;5047835;28;20041;-78
2024/01/11 01:53:00;;;;;;;49.72;16.98;;;;;;;;;;5054065;28;20486;-77
2024/01/11 01:55:28;;;;;;;42.17;16.13;;;;;;;;;;5064903;28;20464;-77
2024/01/11 01:57:55;;;;;;;42.28;16.50;;;;;;;;;;5063364;28;20041;-79
2024/01/11 02:00:21;;;;;;;41.17;15.07;;;;;;;;;;5059128;28;20044;-78
2024/01/11 02:02:51;;;;;;;42.50;14.55;;;;;;;;;;5068313;28;20017;-78
2024/01/11 02:05:17;;;;;;;39.13;13.77;;;;;;;;;;5059831;28;20043;-78
2024/01/11 02:07:44;;;;;;;38.22;14.57;;;;;;;;;;5067313;28;20088;-78
2024/01/11 02:10:11;;;;;;;42.33;14.75;;;;;;;;;;5057445;28;20021;-79
2024/01/11 02:12:37;;;;;;;29.75;11.93;;;;;;;;;;5069970;28;20037;-79
2024/01/11 02:15:04;;;;;;;33.15;12.50;;;;;;;;;;5062524;28;20014;-79
2024/01/11 02:17:31;;;;;;;34.38;12.30;;;;;;;;;;5068638;28;20024;-78
2024/01/11 02:19:57;;;;;;;34.58;11.80;;;;;;;;;;5071122;28;20031;-78
2024/01/11 02:22:28;;;;;;;42.17;15.40;;;;;;;;;;5064965;28;20033;-78
2024/01/11 02:24:54;;;;;;;38.30;15.35;;;;;;;;;;5063695;28;20108;-78
2024/01/11 02:27:20;;;;;;;42.03;15.68;;;;;;;;;;5060487;28;20017;-76
2024/01/11 02:29:46;;;;;;;43.13;14.98;;;;;;;;;;5066244;28;20085;-76
2024/01/11 02:32:13;;;;;;;44.33;15.25;;;;;;;;;;5073643;28;20046;-77
2024/01/11 02:34:39;;;;;;;41.75;15.52;;;;;;;;;;5062684;28;20035;-77
2024/01/11 02:37:06;;;;;;;39.97;13.75;;;;;;;;;;5070523;28;20017;-77
2024/01/11 02:39:32;;;;;;;38.67;13.52;;;;;;;;;;5066560;28;20018;-77
2024/01/11 02:41:59;;;;;;;39.70;15.15;;;;;;;;;;5064744;28;20028;-77
2024/01/11 02:44:25;;;;;;;36.80;13.82;;;;;;;;;;5065033;28;20028;-76
2024/01/11 02:46:51;;;;;;;31.40;12.20;;;;;;;;;;5083144;28;20081;-78
2024/01/11 02:49:18;;;;;;;34.65;12.55;;;;;;;;;;5076958;28;20028;-77
2024/01/11 02:51:44;;;;;;;35.22;12.43;;;;;;;;;;5058556;28;20013;-78
2024/01/11 02:54:10;;;;;;;41.90;14.23;;;;;;;;;;5055797;28;20022;-78
2024/01/11 02:56:36;;;;;;;33.70;12.75;;;;;;;;;;5073319;28;20021;-78
2024/01/11 02:59:02;;;;;;;33.53;11.73;;;;;;;;;;5063903;28;20033;-78
2024/01/11 03:01:29;;;;;;;31.45;10.75;;;;;;;;;;5067828;28;20040;-77
2024/01/11 03:03:56;;;;;;;27.10;10.93;;;;;;;;;;5057701;28;20021;-77
2024/01/11 03:06:22;;;;;;;31.35;11.93;;;;;;;;;;5056687;28;20021;-77
2024/01/11 03:08:51;;;;;;;34.67;11.90;;;;;;;;;;5057716;28;20041;-78
2024/01/11 03:11:20;;;;;;;33.78;13.18;;;;;;;;;;5056761;28;20018;-79
2024/01/11 03:13:46;;;;;;;29.20;12.32;;;;;;;;;;5065951;28;20093;-78
2024/01/11 03:16:12;;;;;;;28.27;11.40;;;;;;;;;;5069618;28;20017;-78
2024/01/11 03:18:38;;;;;;;29.90;10.75;;;;;;;;;;5065518;28;20021;-77
2024/01/11 03:21:04;;;;;;;27.73;11.02;;;;;;;;;;5055750;28;20026;-78
2024/01/11 03:23:31;;;;;;;29.13;11.48;;;;;;;;;;5067739;28;20021;-76
2024/01/11 03:25:57;;;;;;;30.02;11.48;;;;;;;;;;5062055;28;20032;-78
2024/01/11 03:28:23;;;;;;;32.58;13.02;;;;;;;;;;5071647;28;20024;-77
2024/01/11 03:30:49;;;;;;;32.83;12.70;;;;;;;;;;5055059;28;20040;-77
2024/01/11 03:33:15;;;;;;;31.60;12.50;;;;;;;;;;5058837;28;20056;-77
2024/01/11 03:35:43;;;;;;;24.92;10.20;;;;;;;;;;5057148;28;20060;-77
2024/01/11 03:38:10;;;;;;;27.80;10.38;;;;;;;;;;5057365;28;20037;-77
2024/01/11 03:40:36;;;;;;;28.85;9.73;;;;;;;;;;5060866;28;20012;-77
2024/01/11 03:43:02;;;;;;;24.88;10.57;;;;;;;;;;5060430;28;20021;-76
2024/01/11 03:45:28;;;;;;;21.50;8.85;;;;;;;;;;5062158;28;20077;-78
2024/01/11 03:47:54;;;;;;;23.05;9.27;;;;;;;;;;5074667;28;20024;-78
2024/01/11 03:50:20;;;;;;;26.05;9.80;;;;;;;;;;5067094;28;20023;-79
2024/01/11 03:52:46;;;;;;;24.63;10.10;;;;;;;;;;5070351;28;20044;-78
2024/01/11 03:55:12;;;;;;;24.20;9.85;;;;;;;;;;5060042;28;20029;-78
2024/01/11 03:57:39;;;;;;;21.85;8.68;;;;;;;;;;5072971;28;20054;-76
2024/01/11 04:00:06;;;;;;;18.00;8.10;;;;;;;;;;5073271;28;20025;-77
2024/01/11 04:02:32;;;;;;;20.88;9.10;;;;;;;;;;5068360;28;20012;-77
2024/01/11 04:04:58;;;;;;;20.85;8.48;;;;;;;;;;5071090;28;20036;-78
2024/01/11 04:07:24;;;;;;;18.10;7.32;;;;;;;;;;5073714;28;20047;-77
2024/01/11 04:09:51;;;;;;;17.70;8.27;;;;;;;;;;5064317;28;20041;-77
2024/01/11 04:12:17;;;;;;;21.67;8.07;;;;;;;;;;5057305;28;20017;-78
2024/01/11 04:14:43;;;;;;;18.23;7.03;;;;;;;;;;5072441;28;20124;-77
2024/01/11 04:17:09;;;;;;;20.27;8.30;;;;;;;;;;5064795;28;20017;-78
2024/01/11 04:19:35;;;;;;;21.40;8.57;;;;;;;;;;5064898;28;20002;-78
2024/01/11 04:22:01;;;;;;;22.05;8.75;;;;;;;;;;5066572;28;20013;-78
2024/01/11 04:24:27;;;;;;;25.45;9.38;;;;;;;;;;5056881;28;20067;-78
2024/01/11 04:26:53;;;;;;;23.02;9.80;;;;;;;;;;5057117;28;20016;-77
2024/01/11 04:29:20;;;;;;;23.58;8.95;;;;;;;;;;5055545;28;20123;-77
2024/01/11 04:31:46;;;;;;;29.27;12.65;;;;;;;;;;5065597;28;20008;-77
2024/01/11 04:34:12;;;;;;;32.75;12.10;;;;;;;;;;5068012;28;20005;-77
2024/01/11 04:36:39;;;;;;;35.72;14.23;;;;;;;;;;5076298;28;20039;-77
2024/01/11 04:39:07;;;;;;;38.30;14.68;;;;;;;;;;5068522;28;20013;-77
2024/01/11 04:41:34;;;;;;;37.03;14.18;;;;;;;;;;5055894;28;20018;-77
2024/01/11 04:44:00;;;;;;;44.88;16.20;;;;;;;;;;5062694;28;20023;-77
2024/01/11 04:46:26;;;;;;;43.97;15.93;;;;;;;;;;5068795;28;20031;-78
2024/01/11 04:48:53;;;;;;;41.17;14.95;;;;;;;;;;5072572;28;20025;-79
2024/01/11 04:51:20;;;;;;;40.83;14.93;;;;;;;;;;5064747;28;20014;-77
2024/01/11 04:53:46;;;;;;;40.35;14.35;;;;;;;;;;5055138;28;20021;-77
2024/01/11 04:56:14;;;;;;;35.13;13.00;;;;;;;;;;5072281;28;20029;-77
2024/01/11 04:58:41;;;;;;;33.33;13.38;;;;;;;;;;5056214;28;20009;-79
2024/01/11 05:01:07;;;;;;;35.35;13.93;;;;;;;;;;5054786;28;20021;-77
2024/01/11 05:03:34;;;;;;;38.72;14.18;;;;;;;;;;5055559;28;20020;-77
2024/01/11 05:06:00;;;;;;;31.08;13.32;;;;;;;;;;5056963;28;20017;-78
2024/01/11 05:08:27;;;;;;;43.58;15.88;;;;;;;;;;5073402;28;20053;-78
2024/01/11 05:10:53;;;;;;;43.08;14.63;;;;;;;;;;5072270;28;20090;-78
2024/01/11 05:13:20;;;;;;;30.25;13.10;;;;;;;;;;5073810;28;20025;-77
2024/01/11 05:15:46;;;;;;;41.80;14.80;;;;;;;;;;5055236;28;20087;-76
2024/01/11 05:18:13;;;;;;;38.42;14.30;;;;;;;;;;5066439;28;20059;-77
2024/01/11 05:20:39;;;;;;;33.65;14.65;;;;;;;;;;5062597;28;20013;-76
2024/01/11 05:23:06;;;;;;;33.67;13.63;;;;;;;;;;5049727;28;20093;-75
2024/01/11 05:25:33;;;;;;;33.80;13.10;;;;;;;;;;5065204;28;20348;-79
2024/01/11 05:28:03;;;;;;;32.70;12.95;;;;;;;;;;5064516;28;20042;-78
2024/01/11 05:30:30;;;;;;;35.08;12.05;;;;;;;;;;5068392;28;20068;-79
2024/01/11 05:32:56;;;;;;;30.05;12.63;;;;;;;;;;5068782;28;20025;-78
2024/01/11 05:35:28;;;;;;;32.28;13.32;;;;;;;;;;5077676;28;20020;-80
2024/01/11 05:37:55;;;;;;;;;;;;;;;;;;5075161;28;20023;-79
2024/01/11 05:40:21;;;;;;;34.45;12.60;;;;;;;;;;5061240;28;19897;-80
2024/01/11 05:42:48;;;;;;;37.58;13.60;;;;;;;;;;5071538;28;20025;-79
2024/01/11 05:45:16;;;;;;;37.20;13.27;;;;;;;;;;5074044;28;20021;-81
2024/01/11 05:47:43;;;;;;;31.88;13.38;;;;;;;;;;5062965;28;20021;-80
2024/01/11 05:50:10;;;;;;;35.22;13.48;;;;;;;;;;5079131;28;20017;-79
2024/01/11 05:52:36;;;;;;;32.47;12.63;;;;;;;;;;5075323;28;20021;-79
2024/01/11 05:55:02;;;;;;;36.05;13.88;;;;;;;;;;5068933;28;20160;-77
2024/01/11 05:57:28;;;;;;;35.40;13.30;;;;;;;;;;5072063;28;20100;-78
2024/01/11 05:59:54;;;;;;;35.58;12.95;;;;;;;;;;5078553;28;20009;-78
2024/01/11 06:02:22;;;;;;;34.83;12.82;;;;;;;;;;5078986;28;20727;-79
2024/01/11 06:04:49;;;;;;;29.33;12.95;;;;;;;;;;5079551;28;20017;-79
2024/01/11 06:07:15;;;;;;;34.67;13.68;;;;;;;;;;5078042;28;20017;-78
2024/01/11 06:09:41;;;;;;;29.52;12.23;;;;;;;;;;5068746;28;20029;-78
2024/01/11 06:12:10;;;;;;;28.67;10.80;;;;;;;;;;5064668;28;20222;-80
2024/01/11 06:14:36;;;;;;;30.80;11.00;;;;;;;;;;5068192;28;20063;-77
2024/01/11 06:17:02;;;;;;;29.17;11.15;;;;;;;;;;5071921;28;20021;-78
2024/01/11 06:19:28;;;;;;;29.90;10.63;;;;;;;;;;5067925;28;20088;-78
2024/01/11 06:21:56;;;;;;;32.90;11.75;;;;;;;;;;5079744;28;20033;-78
2024/01/11 06:24:22;;;;;;;29.15;11.43;;;;;;;;;;5080403;28;20055;-78
2024/01/11 06:26:48;;;;;;;30.38;11.10;;;;;;;;;;5080186;28;20044;-79
2024/01/11 06:29:14;;;;;;;31.75;13.52;;;;;;;;;;5078568;28;20051;-78
2024/01/11 06:31:40;;;;;;;34.65;13.55;;;;;;;;;;5079637;28;20039;-79
2024/01/11 06:34:06;;;;;;;29.40;13.20;;;;;;;;;;5078771;28;20037;-78
2024/01/11 06:36:32;;;;;;;31.10;12.27;;;;;;;;;;5087938;28;20088;-77
2024/01/11 06:38:58;;;;;;;25.05;10.88;;;;;;;;;;5098581;28;20202;-77
2024/01/11 06:41:24;;;;;;;22.63;9.82;;;;;;;;;;5062637;28;20033;-78
2024/01/11 06:43:51;;;;;;;26.27;10.82;;;;;;;;;;5074278;28;20089;-78
2024/01/11 06:46:21;;;;;;;30.25;10.82;;;;;;;;;;5079310;28;20023;-78
2024/01/11 06:48:47;;;;;;;23.85;10.10;;;;;;;;;;5077799;28;20075;-77
2024/01/11 06:51:16;;;;;;;31.50;12.75;;;;;;;;;;5060972;28;20041;-77
2024/01/11 06:53:42;;;;;;;33.00;13.07;;;;;;;;;;5061849;28;20033;-78
2024/01/11 06:56:15;;;;;;;30.33;11.95;;;;;;;;;;5063227;28;20041;-80
2024/01/11 06:58:41;;;;;;;31.60;12.85;;;;;;;;;;5061778;28;20024;-78
2024/01/11 07:01:08;;;;;;;30.42;11.60;;;;;;;;;;5079113;28;20021;-79
2024/01/11 07:03:34;;;;;;;29.30;11.13;;;;;;;;;;5068518;28;20032;-78
2024/01/11 07:06:00;;;;;;;26.23;9.98;;;;;;;;;;5066842;28;20013;-78
2024/01/11 07:08:26;;;;;;;20.67;9.13;;;;;;;;;;5079140;28;20104;-79
2024/01/11 07:10:52;;;;;;;18.63;7.78;;;;;;;;;;5078332;28;20044;-78
2024/01/11 07:13:19;;;;;;;17.88;8.82;;;;;;;;;;5078985;28;20029;-77
2024/01/11 07:15:45;;;;;;;18.80;7.65;;;;;;;;;;5074671;28;20031;-77
2024/01/11 07:18:11;;;;;;;17.00;7.68;;;;;;;;;;5066780;28;20017;-76
2024/01/11 07:20:38;;;;;;;19.38;8.80;;;;;;;;;;5078215;28;20017;-75
2024/01/11 07:23:04;;;;;;;19.58;8.05;;;;;;;;;;5071838;28;20022;-75
2024/01/11 07:25:30;;;;;;;16.50;6.65;;;;;;;;;;5075304;28;20116;-76
2024/01/11 07:27:56;;;;;;;16.20;6.68;;;;;;;;;;5067482;28;20045;-75
2024/01/11 07:30:22;;;;;;;16.50;6.85;;;;;;;;;;5069465;28;20040;-76
2024/01/11 07:32:51;;;;;;;12.90;5.78;;;;;;;;;;5075351;28;20058;-74
2024/01/11 07:35:17;;;;;;;14.90;6.40;;;;;;;;;;5069094;28;20070;-76
2024/01/11 07:37:43;;;;;;;18.38;7.60;;;;;;;;;;5069581;28;20073;-75
2024/01/11 07:40:10;;;;;;;23.50;8.60;;;;;;;;;;5075216;28;20088;-76
2024/01/11 07:42:41;;;;;;;20.23;9.02;;;;;;;;;;5073649;28;20021;-74
2024/01/11 07:45:09;;;;;;;21.25;8.27;;;;;;;;;;5078116;28;20017;-76
2024/01/11 07:47:39;;;;;;;20.60;8.48;;;;;;;;;;5078504;28;20024;-77
2024/01/11 07:50:09;;;;;;;19.85;8.25;;;;;;;;;;5075037;28;20053;-75
2024/01/11 07:52:36;;;;;;;22.40;9.02;;;;;;;;;;5089448;28;20055;-76
2024/01/11 07:55:07;;;;;;;22.08;9.98;;;;;;;;;;5071960;28;20179;-76
2024/01/11 07:57:36;;;;;;;21.58;8.75;;;;;;;;;;5074458;28;20048;-76
2024/01/11 08:00:03;;;;;;;22.38;9.77;;;;;;;;;;5074958;28;20055;-76
2024/01/11 08:02:29;;;;;;;20.80;8.73;;;;;;;;;;5058722;28;20065;-77
2024/01/11 08:04:56;;;;;;;21.70;8.90;;;;;;;;;;5068050;28;20045;-75
2024/01/11 08:07:22;;;;;;;20.48;8.35;;;;;;;;;;5064777;28;20048;-77
2024/01/11 08:09:50;;;;;;;21.85;9.23;;;;;;;;;;5053427;28;20399;-76
2024/01/11 08:12:17;;;;;;;21.33;9.05;;;;;;;;;;5068871;28;20040;-76
2024/01/11 08:14:43;;;;;;;26.08;10.90;;;;;;;;;;5064187;28;20084;-76
2024/01/11 08:17:09;;;;;;;22.75;10.95;;;;;;;;;;5063834;28;20040;-76
2024/01/11 08:19:36;;;;;;;25.15;9.75;;;;;;;;;;5073691;28;20020;-77
2024/01/11 08:22:02;;;;;;;26.85;10.27;;;;;;;;;;5055986;28;20028;-76
2024/01/11 08:24:28;;;;;;;17.58;8.18;;;;;;;;;;5066013;28;20029;-76
2024/01/11 08:26:54;;;;;;;16.45;7.72;;;;;;;;;;5071096;28;20117;-75
2024/01/11 08:29:22;;;;;;;23.60;9.43;;;;;;;;;;5057737;28;20041;-76
2024/01/11 08:31:48;;;;;;;18.63;8.50;;;;;;;;;;5056345;28;20077;-76
2024/01/11 08:34:14;;;;;;;22.65;8.48;;;;;;;;;;5055770;28;20022;-75
2024/01/11 08:36:41;;;;;;;21.33;8.57;;;;;;;;;;5059731;28;20028;-78
2024/01/11 08:39:08;;;;;;;19.95;8.52;;;;;;;;;;5076606;28;20017;-75
2024/01/11 08:41:40;;;;;;;15.05;6.88;;;;;;;;;;5074452;28;20009;-76
2024/01/11 08:44:06;;;;;;;14.02;6.68;;;;;;;;;;5056614;28;20037;-75
2024/01/11 08:46:35;;;;;;;15.05;6.07;;;;;;;;;;5076783;28;20050;-76
2024/01/11 08:49:03;;;;;;;13.07;6.28;;;;;;;;;;5082310;28;20071;-76
2024/01/11 08:51:34;;;;;;;22.83;10.18;;;;;;;;;;5057152;28;20036;-76
2024/01/11 08:54:01;;;;;;;29.23;12.20;;;;;;;;;;5072175;28;20021;-77
2024/01/11 08:56:27;;;;;;;29.75;12.45;;;;;;;;;;5071677;28;20256;-77
2024/01/11 08:58:54;;;;;;;41.53;13.93;;;;;;;;;;5063496;28;20033;-75
2024/01/11 09:01:20;;;;;;;35.17;15.70;;;;;;;;;;5056073;28;20075;-75
2024/01/11 09:03:47;;;;;;;35.75;14.27;;;;;;;;;;5065140;28;20151;-75
2024/01/11 09:06:14;;;;;;;36.28;14.30;;;;;;;;;;5040533;28;20101;-76
2024/01/11 09:08:43;;;;;;;36.35;14.75;;;;;;;;;;5067327;28;20464;-75
2024/01/11 09:11:10;;;;;;;38.15;15.40;;;;;;;;;;5056965;28;20080;-74
2024/01/11 09:13:37;;;;;;;36.30;15.75;;;;;;;;;;5066623;28;20219;-75
2024/01/11 09:16:03;;;;;;;40.65;16.38;;;;;;;;;;5075064;28;20028;-75
2024/01/11 09:18:30;;;;;;;44.05;17.38;;;;;;;;;;5067897;28;20036;-76
2024/01/11 09:20:56;;;;;;;44.03;18.67;;;;;;;;;;5080822;28;20025;-75
2024/01/11 09:23:22;;;;;;;40.40;16.27;;;;;;;;;;5071753;28;20070;-76
2024/01/11 09:25:49;;;;;;;37.88;16.02;;;;;;;;;;5053010;28;20440;-77
2024/01/11 09:28:15;;;;;;;35.97;16.30;;;;;;;;;;5069713;28;20021;-80
2024/01/11 09:30:41;;;;;;;46.60;18.08;;;;;;;;;;5076020;28;20000;-80
2024/01/11 09:33:07;;;;;;;49.38;20.58;;;;;;;;;;5079399;28;20148;-83
2024/01/11 09:35:33;;;;;;;59.38;23.92;;;;;;;;;;5061800;28;20025;-79
2024/01/11 09:38:00;;;;;;;56.10;23.17;;;;;;;;;;5064390;28;20028;-80
2024/01/11 09:40:27;;;;;;;61.55;24.30;;;;;;;;;;5072147;28;20101;-79
2024/01/11 09:42:53;;;;;;;59.72;23.42;;;;;;;;;;5071874;28;20077;-83
2024/01/11 09:45:19;;;;;;;56.78;22.85;;;;;;;;;;5076319;28;20014;-83
2024/01/11 09:47:46;;;;;;;55.40;21.35;;;;;;;;;;5058563;28;20116;-78
2024/01/11 09:50:21;;;;;;;51.03;20.27;;;;;;;;;;5050513;28;20033;-79
2024/01/11 09:52:51;;;;;;;49.72;20.35;;;;;;;;;;5059776;28;20047;-80
2024/01/11 09:55:18;;;;;;;47.40;19.73;;;;;;;;;;5078214;28;20047;-79
2024/01/11 09:57:48;;;;;;;47.55;19.98;;;;;;;;;;5051567;28;20120;-77
2024/01/11 10:00:18;;;;;;;48.65;19.25;;;;;;;;;;5051549;28;20033;-79
2024/01/11 10:02:44;;;;;;;51.55;20.25;;;;;;;;;;5064925;28;20052;-79
2024/01/11 10:05:11;;;;;;;46.22;18.75;;;;;;;;;;5072927;28;20032;-77
2024/01/11 10:07:41;;;;;;;41.40;15.68;;;;;;;;;;5062767;28;20052;-80
2024/01/11 10:10:07;;;;;;;40.00;16.92;;;;;;;;;;5044207;28;20057;-79
2024/01/11 10:12:36;;;;;;;41.88;17.58;;;;;;;;;;5061097;28;20029;-78
2024/01/11 10:15:09;;;;;;;33.45;15.27;;;;;;;;;;5063579;28;20044;-78
2024/01/11 10:17:35;;;;;;;32.92;14.25;;;;;;;;;;5055777;28;20032;-78
2024/01/11 10:20:03;;;;;;;32.55;13.63;;;;;;;;;;5052246;28;20040;-79
2024/01/11 10:22:29;;;;;;;25.88;12.38;;;;;;;;;;5067150;28;20044;-79
2024/01/11 10:25:10;;;;;;;30.02;13.13;;;;;;;;;;5064122;28;20031;-77
2024/01/11 10:27:36;;;;;;;30.10;13.13;;;;;;;;;;5049764;28;20119;-79
2024/01/11 10:30:03;;;;;;;33.03;14.15;;;;;;;;;;5056446;28;20029;-78
2024/01/11 10:32:29;;;;;;;31.80;13.45;;;;;;;;;;5061987;28;20024;-77
2024/01/11 10:34:56;;;;;;;28.08;11.65;;;;;;;;;;5048401;28;20029;-79
2024/01/11 10:37:23;;;;;;;52.03;21.30;;;;;;;;;;5059692;28;20048;-79
2024/01/11 10:39:50;;;;;;;55.58;23.38;;;;;;;;;;5056963;28;20070;-78
2024/01/11 10:42:18;;;;;;;63.88;25.52;;;;;;;;;;5067515;28;20097;-81
2024/01/11 10:44:47;;;;;;;52.47;23.02;;;;;;;;;;5060836;28;20029;-78
2024/01/11 10:47:14;;;;;;;57.00;23.92;;;;;;;;;;5063376;28;20074;-77
2024/01/11 10:49:42;;;;;;;59.20;22.73;;;;;;;;;;5071479;28;20033;-78
2024/01/11 10:52:11;;;;;;;53.70;22.45;;;;;;;;;;5069199;28;20036;-77
2024/01/11 10:54:37;;;;;;;65.03;26.35;;;;;;;;;;5072836;28;20028;-78
2024/01/11 10:57:05;;;;;;;59.35;25.38;;;;;;;;;;5049306;28;20033;-79
2024/01/11 10:59:32;;;;;;;70.55;28.00;;;;;;;;;;5063789;28;20029;-79
2024/01/11 11:01:59;;;;;;;68.88;28.13;;;;;;;;;;5054940;28;20025;-77
2024/01/11 11:04:26;;;;;;;58.03;24.38;;;;;;;;;;5062668;28;20045;-80
2024/01/11 11:06:57;;;;;;;59.05;24.85;;;;;;;;;;5058929;28;20009;-78
2024/01/11 11:09:23;;;;;;;56.47;23.65;;;;;;;;;;5062699;28;20021;-78
2024/01/11 11:11:50;;;;;;;62.13;23.15;;;;;;;;;;5066831;28;20016;-79
2024/01/11 11:14:17;;;;;;;59.60;24.40;;;;;;;;;;5070803;28;20040;-78
2024/01/11 11:16:45;;;;;;;54.95;20.85;;;;;;;;;;5075543;28;20036;-81
2024/01/11 11:19:14;;;;;;;49.50;21.95;;;;;;;;;;5076607;28;20542;-81
2024/01/11 11:21:44;;;;;;;44.88;20.10;;;;;;;;;;5054847;28;20025;-80
2024/01/11 11:24:10;;;;;;;54.65;21.85;;;;;;;;;;5064191;28;20033;-79
2024/01/11 11:26:37;;;;;;;52.72;23.67;;;;;;;;;;5056466;28;20236;-81
2024/01/11 11:29:06;;;;;;;62.53;24.92;;;;;;;;;;5056595;28;20041;-79
2024/01/11 11:31:36;;;;;;;61.30;25.15;;;;;;;;;;5067302;28;20036;-80
2024/01/11 11:34:03;;;;;;;62.63;25.30;;;;;;;;;;5068230;28;20029;-79
2024/01/11 11:36:30;;;;;;;65.72;26.20;;;;;;;;;;5073322;28;20058;-80
2024/01/11 11:39:00;;;;;;;65.95;26.73;;;;;;;;;;5069526;28;20032;-81
2024/01/11 11:41:27;;;;;;;62.90;25.25;;;;;;;;;;5069034;28;20006;-79
2024/01/11 11:43:53;;;;;;;66.25;23.80;;;;;;;;;;5064876;28;20037;-80
2024/01/11 11:46:19;;;;;;;59.33;22.27;;;;;;;;;;5073869;28;20024;-80
2024/01/11 11:48:55;;;;;;;60.00;24.35;;;;;;;;;;5063837;28;20029;-80
2024/01/11 11:51:21;;;;;;;59.97;24.95;;;;;;;;;;5062119;28;20033;-79
2024/01/11 11:53:50;;;;;;;57.30;22.88;;;;;;;;;;5065543;28;20029;-84
2024/01/11 11:56:20;;;;;;;63.30;25.02;;;;;;;;;;5067230;28;20029;-83
2024/01/11 11:58:49;;;;;;;55.72;21.83;;;;;;;;;;5073392;28;20039;-80
2024/01/11 12:01:17;;;;;;;59.17;22.38;;;;;;;;;;5060844;28;20026;-79
2024/01/11 12:03:49;;;;;;;56.78;22.05;;;;;;;;;;5081401;28;20052;-81
2024/01/11 12:06:16;;;;;;;50.33;22.15;;;;;;;;;;5070469;28;20025;-79
2024/01/11 12:08:43;;;;;;;49.90;20.35;;;;;;;;;;5053683;28;20071;-80
2024/01/11 12:11:09;;;;;;;53.65;20.55;;;;;;;;;;5047655;28;20392;-79
2024/01/11 12:13:35;;;;;;;57.17;22.70;;;;;;;;;;5063610;28;20032;-81
2024/01/11 12:16:02;;;;;;;52.08;23.23;;;;;;;;;;5051860;28;20025;-79
2024/01/11 12:18:28;;;;;;;50.28;22.20;;;;;;;;;;5047776;28;20021;-81
2024/01/11 12:20:54;;;;;;;59.45;24.00;;;;;;;;;;5057280;28;20037;-82
2024/01/11 12:23:20;;;;;;;51.65;22.65;;;;;;;;;;5059050;28;20496;-79
2024/01/11 12:25:46;;;;;;;49.83;19.40;;;;;;;;;;5060802;28;20037;-80
2024/01/11 12:28:13;;;;;;;40.10;18.08;;;;;;;;;;5055888;28;20398;-80
2024/01/11 12:30:39;;;;;;;41.13;17.98;;;;;;;;;;5058127;28;20048;-79
2024/01/11 12:33:06;;;;;;;39.15;16.65;;;;;;;;;;5052758;28;20028;-82
2024/01/11 12:35:32;;;;;;;46.20;19.42;;;;;;;;;;5060052;28;20017;-81
2024/01/11 12:38:02;;;;;;;38.25;17.83;;;;;;;;;;5054534;28;20109;-81
2024/01/11 12:40:30;;;;;;;49.47;21.52;;;;;;;;;;5054477;28;20052;-81
2024/01/11 12:42:58;;;;;;;51.22;23.10;;;;;;;;;;5044882;28;20032;-79
2024/01/11 12:45:29;;;;;;;48.65;21.13;;;;;;;;;;5047068;28;20033;-80
2024/01/11 12:47:56;;;;;;;52.75;23.17;;;;;;;;;;5065697;28;20044;-84
2024/01/11 12:50:23;;;;;;;58.00;23.48;;;;;;;;;;5060557;28;20046;-79
2024/01/11 12:53:26;;;;;;;61.92;26.35;;;;;;;;;;5046099;28;20555;-83
2024/01/11 12:56:11;;;;;;;52.40;23.77;;;;;;;;;;4998544;28;20094;-80
2024/01/11 12:58:38;;;;;;;56.00;24.23;;;;;;;;;;5050991;28;20037;-80
2024/01/11 13:01:04;;;;;;;57.63;24.33;;;;;;;;;;5058552;28;20104;-80
2024/01/11 13:03:31;;;;;;;57.22;24.02;;;;;;;;;;5045902;28;20060;-79
2024/01/11 13:05:58;;;;;;;55.70;23.30;;;;;;;;;;5056956;28;20052;-79
2024/01/11 13:08:26;;;;;;;50.95;21.73;;;;;;;;;;5045134;28;20025;-78
2024/01/11 13:23:13;;;;;;;33.75;13.45;;;;;;;;;;5072108;27;2344438;-80
2024/01/11 13:25:40;;;;;;;36.08;13.93;;;;;;;;;;5134310;28;20073;-76
2024/01/11 13:28:06;;;;;;;31.33;14.35;;;;;;;;;;5128044;28;20024;-76
2024/01/11 13:30:32;;;;;;;34.60;14.18;;;;;;;;;;5115504;28;20076;-75
2024/01/11 13:32:59;;;;;;;28.05;13.65;;;;;;;;;;5098727;28;20039;-76
2024/01/11 13:35:25;;;;;;;30.55;12.82;;;;;;;;;;5116668;28;20027;-74
2024/01/11 13:37:51;;;;;;;37.97;16.98;;;;;;;;;;5112338;28;20100;-77
2024/01/11 13:40:17;;;;;;;37.35;16.23;;;;;;;;;;5113801;28;20043;-76
2024/01/11 13:42:44;;;;;;;47.28;18.83;;;;;;;;;;5119311;28;20035;-77
2024/01/11 13:45:10;;;;;;;38.22;16.50;;;;;;;;;;5117936;28;20016;-78
2024/01/11 13:47:36;;;;;;;39.05;17.23;;;;;;;;;;5109076;28;20038;-77
2024/01/11 13:50:03;;;;;;;35.30;15.15;;;;;;;;;;5133454;28;20055;-78
2024/01/11 13:52:58;;;;;;;53.47;22.23;;;;;;;;;;5115430;28;20028;-81
2024/01/11 13:55:24;;;;;;;59.20;24.02;;;;;;;;;;5118169;28;20111;-81
2024/01/11 13:57:51;;;;;;;65.18;24.63;;;;;;;;;;5120593;28;20469;-79
2024/01/11 14:00:18;;;;;;;64.45;25.33;;;;;;;;;;5113355;28;20023;-78
2024/01/11 14:03:08;;;;;;;72.05;28.38;;;;;;;;;;5129292;28;20027;-78
2024/01/11 14:05:37;;;;;;;64.93;27.08;;;;;;;;;;5121935;28;20046;-77
2024/01/11 14:08:05;;;;;;;61.15;24.77;;;;;;;;;;5114330;28;20054;-78
2024/01/11 14:10:35;;;;;;;60.72;23.90;;;;;;;;;;5125129;28;20027;-78
2024/01/11 14:13:01;;;;;;;49.67;22.90;;;;;;;;;;5135207;28;20514;-78
2024/01/11 14:15:28;;;;;;;57.08;24.38;;;;;;;;;;5133708;28;20047;-78
2024/01/11 14:17:54;;;;;;;64.20;27.20;;;;;;;;;;5135980;28;20043;-79
2024/01/11 14:20:21;;;;;;;58.45;24.63;;;;;;;;;;5130856;28;20051;-78
2024/01/11 14:22:50;;;;;;;49.47;21.73;;;;;;;;;;5124352;28;20067;-78
2024/01/11 14:25:18;;;;;;;47.22;20.45;;;;;;;;;;5124510;28;20028;-77
2024/01/11 14:27:44;;;;;;;40.40;17.65;;;;;;;;;;5134793;28;20038;-77
2024/01/11 14:30:11;;;;;;;40.60;18.73;;;;;;;;;;5109517;28;20541;-77